Terminal Aerodrome Forecast
Issued by NWS Lake Charles, LA

Home | Current Version | Previous Version | Text Only | Print | Product List | Glossary On
Versions: 1 2 3 4 5 6 7 8 9 10 11 12 13 14 15 16 17
000
FTUS44 KLCH 282300
TAFBPT
TAF
KBPT 282338Z 2900/2924 34008KT P6SM -RA OVC008
     FM290200 35005KT 6SM BR OVC006
     FM290400 36005KT 4SM BR OVC004
     FM290900 36004KT 1SM BR OVC003
     FM291500 03004KT P6SM OVC007
     FM291900 03006KT P6SM OVC012=

USA.gov is the U.S. government's official web portal to all federal, state and local government web resources and services.